createdAt,value
2022-08-27T00:01:16.579Z,21.30
2022-08-27T00:03:44.986Z,21.30
2022-08-27T00:06:14.286Z,21.30
2022-08-27T00:08:42.656Z,21.20
2022-08-27T00:11:11.735Z,21.20
2022-08-27T00:13:39.187Z,21.20
2022-08-27T00:16:08.032Z,21.20
2022-08-27T00:18:36.538Z,21.20
2022-08-27T00:21:04.230Z,21.20
2022-08-27T00:23:34.621Z,21.20
2022-08-27T00:26:02.206Z,21.20
2022-08-27T00:28:30.428Z,21.20
2022-08-27T00:30:58.178Z,21.10
2022-08-27T00:33:26.317Z,21.10
2022-08-27T00:35:53.836Z,21.10
2022-08-27T00:38:22.419Z,21.00
2022-08-27T00:40:49.967Z,21.00
2022-08-27T00:43:28.940Z,21.00
2022-08-27T00:46:03.627Z,21.00
2022-08-27T00:48:35.266Z,21.00
2022-08-27T00:51:03.126Z,21.00
2022-08-27T00:53:33.416Z,20.90
2022-08-27T00:56:26.933Z,21.00
2022-08-27T00:58:55.884Z,20.90
2022-08-27T01:01:27.820Z,20.80
2022-08-27T01:03:59.354Z,20.80
2022-08-27T01:06:32.255Z,20.80
2022-08-27T01:09:12.042Z,20.80
2022-08-27T01:11:39.043Z,20.70
2022-08-27T01:14:06.737Z,20.70
2022-08-27T01:16:40.285Z,20.70
2022-08-27T01:19:14.506Z,21.00
2022-08-27T01:21:56.425Z,20.70
2022-08-27T01:24:48.659Z,20.70
2022-08-27T01:27:19.673Z,20.70
2022-08-27T01:35:07.424Z,20.60
2022-08-27T01:37:36.980Z,20.60
2022-08-27T01:40:06.537Z,20.60
2022-08-27T01:42:43.260Z,20.60
2022-08-27T01:45:13.722Z,20.60
2022-08-27T01:47:40.816Z,20.60
2022-08-27T01:50:14.793Z,20.60
2022-08-27T01:52:42.028Z,20.60
2022-08-27T01:55:12.135Z,20.60
2022-08-27T01:57:40.959Z,20.60
2022-08-27T02:00:13.065Z,20.60
2022-08-27T02:02:41.489Z,20.50
2022-08-27T02:05:08.957Z,20.50
2022-08-27T02:07:37.144Z,20.40
2022-08-27T02:10:06.319Z,20.40
2022-08-27T02:12:33.578Z,20.40
2022-08-27T02:15:00.735Z,20.30
2022-08-27T02:17:27.797Z,20.30
2022-08-27T02:19:55.325Z,20.30
2022-08-27T02:22:22.537Z,20.20
2022-08-27T02:24:49.591Z,20.20
2022-08-27T02:27:18.405Z,20.10
2022-08-27T02:29:49.845Z,20.00
2022-08-27T02:32:20.777Z,20.00
2022-08-27T02:34:59.825Z,20.00
2022-08-27T02:37:27.064Z,19.90
2022-08-27T02:39:53.960Z,19.90
2022-08-27T02:42:21.197Z,19.80
2022-08-27T02:44:48.595Z,19.80
2022-08-27T02:47:16.894Z,19.70
2022-08-27T02:49:44.559Z,19.70
2022-08-27T02:52:11.789Z,19.70
2022-08-27T02:54:40.638Z,19.60
2022-08-27T02:57:07.781Z,19.60
2022-08-27T02:59:35.290Z,19.50
2022-08-27T03:02:02.645Z,19.50
2022-08-27T03:04:29.961Z,19.40
2022-08-27T03:06:57.264Z,19.40
2022-08-27T03:09:24.441Z,19.40
2022-08-27T03:11:51.599Z,19.30
2022-08-27T03:14:18.751Z,19.30
2022-08-27T03:16:45.866Z,19.30
2022-08-27T03:19:13.035Z,19.30
2022-08-27T03:21:40.229Z,19.30
2022-08-27T03:24:11.825Z,19.20
2022-08-27T03:26:41.874Z,19.20
2022-08-27T03:29:20.820Z,19.20
2022-08-27T03:31:48.453Z,19.20
2022-08-27T03:34:19.651Z,19.10
2022-08-27T03:36:49.000Z,19.20
2022-08-27T03:39:17.074Z,19.10
2022-08-27T03:41:54.731Z,19.10
2022-08-27T03:44:24.293Z,19.00
2022-08-27T03:46:54.369Z,19.00
2022-08-27T03:49:22.639Z,18.90
2022-08-27T03:51:51.973Z,19.00
2022-08-27T03:54:18.987Z,19.00
2022-08-27T03:56:47.216Z,18.90
2022-08-27T03:59:15.767Z,18.90
2022-08-27T04:01:43.478Z,18.90
2022-08-27T04:04:10.820Z,18.80
2022-08-27T04:06:37.775Z,18.90
2022-08-27T04:09:05.127Z,18.90
2022-08-27T04:11:34.766Z,18.90
2022-08-27T04:14:04.662Z,18.80
2022-08-27T04:16:48.287Z,18.80
2022-08-27T04:19:17.656Z,18.80
2022-08-27T04:21:44.554Z,18.80
2022-08-27T04:24:12.212Z,18.80
2022-08-27T04:26:41.220Z,18.80
2022-08-27T04:29:08.308Z,18.80
2022-08-27T04:31:35.674Z,18.80
2022-08-27T04:34:03.166Z,18.80
2022-08-27T04:36:30.021Z,18.90
2022-08-27T04:38:56.909Z,18.90
2022-08-27T04:41:25.208Z,18.90
2022-08-27T04:43:57.879Z,19.00
2022-08-27T04:46:24.764Z,18.90
2022-08-27T04:48:52.535Z,19.00
2022-08-27T04:51:21.099Z,19.00
2022-08-27T04:53:50.019Z,19.10
2022-08-27T04:56:18.710Z,19.10
2022-08-27T04:58:45.622Z,19.10
2022-08-27T05:01:20.518Z,19.20
2022-08-27T05:03:48.024Z,19.30
2022-08-27T05:06:15.207Z,19.30
2022-08-27T05:08:42.213Z,19.40
2022-08-27T05:11:11.911Z,19.50
2022-08-27T05:13:39.624Z,19.50
2022-08-27T05:16:10.686Z,19.60
2022-08-27T05:18:47.704Z,19.60
2022-08-27T05:21:27.489Z,19.70
2022-08-27T05:23:56.594Z,19.80
2022-08-27T05:26:23.651Z,19.90
2022-08-27T05:28:50.631Z,19.90
2022-08-27T05:31:21.060Z,20.00
2022-08-27T05:33:49.098Z,20.20
2022-08-27T05:36:22.898Z,20.30
2022-08-27T05:38:50.515Z,20.40
2022-08-27T05:41:21.745Z,20.50
2022-08-27T05:43:50.370Z,20.70
2022-08-27T05:46:20.410Z,20.80
2022-08-27T05:48:48.219Z,20.90
2022-08-27T05:51:26.027Z,21.10
2022-08-27T05:54:08.610Z,21.20
2022-08-27T05:56:39.147Z,21.40
2022-08-27T05:59:25.171Z,21.50
2022-08-27T06:01:54.411Z,21.60
2022-08-27T06:04:23.429Z,21.70
2022-08-27T06:06:51.157Z,21.90
2022-08-27T06:09:24.097Z,22.00
2022-08-27T06:11:53.288Z,22.10
2022-08-27T06:14:20.159Z,22.20
2022-08-27T06:16:48.381Z,22.30
2022-08-27T06:19:16.133Z,22.40
2022-08-27T06:21:43.221Z,22.50
2022-08-27T06:24:12.973Z,22.50
2022-08-27T06:26:42.391Z,22.70
2022-08-27T06:29:10.117Z,22.80
2022-08-27T06:31:38.775Z,22.90
2022-08-27T06:34:09.255Z,23.00
2022-08-27T06:36:38.742Z,23.00
2022-08-27T06:39:07.126Z,23.20
2022-08-27T06:41:34.952Z,23.30
2022-08-27T06:44:02.613Z,23.30
2022-08-27T06:46:29.839Z,23.40
2022-08-27T06:49:00.175Z,23.50
2022-08-27T06:51:30.031Z,23.60
2022-08-27T06:53:59.770Z,23.70
2022-08-27T06:56:27.677Z,23.80
2022-08-27T06:59:00.894Z,23.90
2022-08-27T07:01:32.811Z,24.10
2022-08-27T07:04:02.382Z,24.20
2022-08-27T07:06:31.764Z,24.30
2022-08-27T07:08:59.930Z,24.40
2022-08-27T07:11:29.097Z,24.60
2022-08-27T07:13:56.474Z,24.60
2022-08-27T07:16:25.565Z,24.60
2022-08-27T07:18:54.887Z,24.80
2022-08-27T07:21:22.807Z,24.80
2022-08-27T07:23:52.507Z,24.80
2022-08-27T07:26:22.680Z,25.00
2022-08-27T07:28:50.417Z,25.10
2022-08-27T07:31:21.431Z,25.20
2022-08-27T07:33:52.630Z,25.30
2022-08-27T07:36:21.959Z,25.40
2022-08-27T07:38:56.851Z,25.60
2022-08-27T07:41:30.650Z,25.70
2022-08-27T07:44:18.694Z,25.80
2022-08-27T07:46:48.397Z,25.90
2022-08-27T07:49:17.440Z,26.10
2022-08-27T07:51:45.018Z,26.20
2022-08-27T07:54:12.200Z,26.30
2022-08-27T07:56:39.513Z,26.40
2022-08-27T07:59:06.759Z,26.60
2022-08-27T08:01:33.949Z,26.70
2022-08-27T08:04:01.254Z,26.90
2022-08-27T08:06:28.504Z,27.10
2022-08-27T08:08:55.546Z,27.30
2022-08-27T08:11:22.702Z,27.40
2022-08-27T08:13:50.096Z,27.50
2022-08-27T08:16:17.101Z,27.60
2022-08-27T08:18:44.325Z,27.70
2022-08-27T08:21:13.943Z,27.80
2022-08-27T08:23:42.396Z,27.90
2022-08-27T08:26:11.208Z,28.10
2022-08-27T08:28:40.046Z,28.20
2022-08-27T08:31:07.777Z,28.30
2022-08-27T08:33:35.880Z,28.30
2022-08-27T08:36:20.911Z,28.50
2022-08-27T08:38:48.420Z,28.50
2022-08-27T08:41:52.951Z,28.70
2022-08-27T08:44:42.512Z,28.70
2022-08-27T08:47:14.820Z,28.70
2022-08-27T08:49:57.477Z,28.70
2022-08-27T08:52:33.027Z,28.70
2022-08-27T08:55:16.969Z,28.60
2022-08-27T08:57:51.953Z,28.60
2022-08-27T09:00:19.678Z,28.60
2022-08-27T09:02:54.601Z,28.70
2022-08-27T09:05:24.102Z,28.80
2022-08-27T09:08:33.141Z,28.80
2022-08-27T09:11:18.221Z,28.90
2022-08-27T09:14:24.862Z,29.00
2022-08-27T09:16:56.719Z,29.10
2022-08-27T09:19:24.888Z,29.10
2022-08-27T09:22:01.205Z,29.20
2022-08-27T09:24:46.285Z,29.20
2022-08-27T09:27:15.238Z,29.30
2022-08-27T09:29:54.024Z,29.40
2022-08-27T09:32:31.899Z,29.40
2022-08-27T09:35:01.225Z,29.60
2022-08-27T09:37:39.176Z,29.70
2022-08-27T09:40:13.612Z,29.80
2022-08-27T09:42:53.695Z,30.00
2022-08-27T09:45:24.870Z,30.10
2022-08-27T09:47:55.601Z,30.20
2022-08-27T09:50:35.524Z,30.30
2022-08-27T09:53:03.381Z,30.40
2022-08-27T09:55:44.186Z,30.50
2022-08-27T09:58:25.094Z,30.50
2022-08-27T10:01:17.510Z,30.50
2022-08-27T10:03:44.571Z,30.60
2022-08-27T10:06:11.907Z,30.70
2022-08-27T10:08:46.151Z,30.70
2022-08-27T10:11:21.470Z,30.80
2022-08-27T10:13:54.303Z,30.90
2022-08-27T10:16:24.157Z,30.90
2022-08-27T10:19:23.432Z,30.90
2022-08-27T10:22:03.468Z,31.00
2022-08-27T10:24:37.794Z,31.00
2022-08-27T10:27:16.184Z,31.00
2022-08-27T10:29:43.131Z,31.10
2022-08-27T10:32:10.338Z,31.10
2022-08-27T10:34:47.908Z,31.20
2022-08-27T10:37:14.963Z,31.20
2022-08-27T10:40:04.575Z,31.20
2022-08-27T10:42:49.023Z,31.20
2022-08-27T10:45:50.267Z,31.20
2022-08-27T10:48:55.799Z,31.20
2022-08-27T10:51:31.559Z,31.10
2022-08-27T10:54:20.813Z,31.10
2022-08-27T10:57:26.216Z,31.00
2022-08-27T11:00:12.821Z,31.00
2022-08-27T11:02:48.487Z,30.90
2022-08-27T11:05:28.369Z,30.90
2022-08-27T11:08:24.738Z,30.90
2022-08-27T11:11:26.023Z,30.80
2022-08-27T11:13:53.358Z,30.80
2022-08-27T11:16:33.889Z,30.80
2022-08-27T11:19:06.062Z,30.80
2022-08-27T11:22:01.979Z,30.80
2022-08-27T11:24:43.536Z,30.90
2022-08-27T11:27:20.428Z,31.00
2022-08-27T11:30:12.203Z,31.00
2022-08-27T11:33:03.688Z,31.20
2022-08-27T11:35:53.580Z,31.30
2022-08-27T11:38:29.257Z,31.50
2022-08-27T11:41:19.850Z,31.70
2022-08-27T11:43:47.529Z,32.20
2022-08-27T11:46:25.209Z,32.70
2022-08-27T11:48:59.197Z,33.40
2022-08-27T11:51:44.460Z,34.30
2022-08-27T11:54:27.086Z,35.40
2022-08-27T11:56:54.513Z,36.30
2022-08-27T11:59:23.728Z,37.30
2022-08-27T12:01:53.458Z,38.20
2022-08-27T12:04:34.261Z,39.10
2022-08-27T12:07:11.867Z,39.80
2022-08-27T12:09:56.630Z,40.50
2022-08-27T12:13:17.465Z,41.20
2022-08-27T12:16:12.403Z,41.90
2022-08-27T12:18:39.325Z,42.50
2022-08-27T12:21:27.507Z,42.80
2022-08-27T12:24:37.104Z,43.20
2022-08-27T12:27:32.163Z,43.60
2022-08-27T12:30:04.451Z,43.80
2022-08-27T12:32:39.061Z,44.00
2022-08-27T12:35:19.289Z,44.20
2022-08-27T12:38:16.028Z,44.20
2022-08-27T12:40:48.996Z,43.90
2022-08-27T12:43:21.069Z,43.50
2022-08-27T12:45:57.365Z,43.50
2022-08-27T12:48:35.056Z,43.70
2022-08-27T12:51:07.127Z,44.00
2022-08-27T12:53:56.640Z,44.20
2022-08-27T12:56:47.889Z,44.70
2022-08-27T12:59:42.155Z,45.00
2022-08-27T13:02:27.155Z,45.30
2022-08-27T13:04:54.422Z,45.50
2022-08-27T13:07:38.254Z,45.30
2022-08-27T13:10:31.302Z,45.20
2022-08-27T13:13:20.105Z,44.80
2022-08-27T13:15:55.300Z,44.10
2022-08-27T13:18:23.534Z,43.50
2022-08-27T13:21:00.322Z,43.30
2022-08-27T13:23:28.178Z,43.30
2022-08-27T13:26:02.259Z,43.70
2022-08-27T13:28:31.056Z,44.00
2022-08-27T13:30:59.586Z,44.40
2022-08-27T13:33:30.140Z,44.70
2022-08-27T13:35:57.742Z,45.20
2022-08-27T13:38:31.100Z,45.60
2022-08-27T13:41:02.429Z,45.80
2022-08-27T13:43:45.327Z,46.00
2022-08-27T13:46:18.795Z,46.20
2022-08-27T13:48:49.514Z,46.30
2022-08-27T13:51:24.082Z,46.40
2022-08-27T13:54:09.507Z,46.40
2022-08-27T13:57:03.523Z,46.40
2022-08-27T13:59:32.018Z,46.40
2022-08-27T14:02:10.654Z,46.10
2022-08-27T14:04:50.836Z,45.90
2022-08-27T14:07:25.841Z,45.60
2022-08-27T14:10:18.768Z,45.40
2022-08-27T14:12:58.287Z,45.00
2022-08-27T14:15:28.081Z,44.60
2022-08-27T14:17:56.914Z,44.30
2022-08-27T14:20:24.492Z,44.00
2022-08-27T14:22:51.904Z,43.70
2022-08-27T14:25:22.457Z,43.40
2022-08-27T14:27:54.285Z,43.30
2022-08-27T14:30:28.904Z,43.10
2022-08-27T14:32:59.559Z,43.00
2022-08-27T14:35:31.012Z,43.00
2022-08-27T14:38:01.082Z,42.90
2022-08-27T14:40:28.235Z,43.00
2022-08-27T14:42:55.291Z,43.10
2022-08-27T14:45:23.357Z,43.10
2022-08-27T14:47:51.831Z,43.20
2022-08-27T14:50:19.055Z,43.30
2022-08-27T14:52:46.227Z,43.30
2022-08-27T14:55:14.436Z,43.30
2022-08-27T14:57:41.680Z,43.30
2022-08-27T15:00:09.919Z,43.30
2022-08-27T15:02:43.726Z,43.30
2022-08-27T15:05:17.372Z,43.30
2022-08-27T15:07:47.228Z,43.10
2022-08-27T15:10:15.139Z,43.10
2022-08-27T15:12:42.821Z,43.10
2022-08-27T15:15:10.604Z,43.00
2022-08-27T15:17:37.734Z,43.00
2022-08-27T15:20:08.817Z,43.00
2022-08-27T15:22:40.170Z,43.00
2022-08-27T15:25:11.950Z,43.00
2022-08-27T15:27:39.348Z,42.80
2022-08-27T15:30:10.103Z,42.80
2022-08-27T15:32:41.715Z,42.60
2022-08-27T15:35:13.899Z,42.40
2022-08-27T15:37:42.751Z,42.20
2022-08-27T15:40:11.434Z,42.00
2022-08-27T15:42:38.588Z,41.80
2022-08-27T15:45:06.931Z,41.70
2022-08-27T15:47:34.457Z,41.50
2022-08-27T15:50:01.940Z,41.40
2022-08-27T15:52:40.331Z,41.10
2022-08-27T15:55:18.633Z,40.90
2022-08-27T15:57:45.571Z,40.60
2022-08-27T16:00:13.253Z,40.10
2022-08-27T16:02:41.499Z,39.70
2022-08-27T16:05:10.294Z,39.20
2022-08-27T16:07:37.253Z,38.70
2022-08-27T16:10:05.144Z,38.10
2022-08-27T16:12:32.127Z,37.60
2022-08-27T16:14:58.998Z,37.00
2022-08-27T16:17:26.544Z,36.50
2022-08-27T16:19:54.782Z,36.00
2022-08-27T16:22:21.687Z,35.50
2022-08-27T16:24:48.664Z,35.10
2022-08-27T16:27:15.742Z,34.70
2022-08-27T16:29:42.823Z,34.40
2022-08-27T16:32:16.917Z,34.20
2022-08-27T16:34:47.486Z,33.90
2022-08-27T16:37:22.783Z,33.70
2022-08-27T16:39:49.648Z,33.40
2022-08-27T16:42:16.655Z,33.20
2022-08-27T16:44:43.687Z,32.90
2022-08-27T16:47:10.474Z,32.70
2022-08-27T16:49:55.779Z,32.50
2022-08-27T16:52:23.832Z,32.20
2022-08-27T16:54:52.579Z,32.00
2022-08-27T16:57:19.675Z,31.80
2022-08-27T16:59:46.568Z,31.60
2022-08-27T17:02:35.850Z,31.50
2022-08-27T17:05:34.090Z,31.30
2022-08-27T17:07:50.154Z,31.10
2022-08-27T17:10:18.800Z,30.90
2022-08-27T17:12:48.043Z,30.70
2022-08-27T17:15:16.818Z,30.50
2022-08-27T17:17:45.101Z,30.30
2022-08-27T17:20:15.064Z,30.10
2022-08-27T17:22:42.805Z,29.90
2022-08-27T17:25:10.963Z,29.70
2022-08-27T17:27:37.876Z,29.60
2022-08-27T17:30:05.904Z,29.40
2022-08-27T17:32:37.408Z,29.20
2022-08-27T17:35:06.874Z,29.00
2022-08-27T17:37:34.393Z,28.80
2022-08-27T17:40:01.298Z,28.60
2022-08-27T17:42:29.598Z,28.50
2022-08-27T17:44:56.588Z,28.30
2022-08-27T17:47:24.964Z,28.20
2022-08-27T17:49:52.877Z,28.10
2022-08-27T17:52:20.835Z,28.00
2022-08-27T17:54:51.231Z,27.90
2022-08-27T17:57:27.838Z,27.80
2022-08-27T17:59:55.653Z,27.70
2022-08-27T18:02:29.173Z,27.60
2022-08-27T18:04:56.598Z,27.40
2022-08-27T18:07:25.043Z,27.30
2022-08-27T18:09:52.171Z,27.20
2022-08-27T18:12:23.474Z,27.00
2022-08-27T18:15:31.082Z,26.90
2022-08-27T18:17:59.227Z,26.80
2022-08-27T18:20:29.247Z,26.60
2022-08-27T18:22:56.804Z,26.50
2022-08-27T18:25:27.286Z,26.40
2022-08-27T18:27:58.542Z,26.40
2022-08-27T18:30:26.272Z,26.30
2022-08-27T18:32:53.629Z,26.20
2022-08-27T18:35:24.665Z,26.20
2022-08-27T18:37:51.678Z,26.00
2022-08-27T18:40:22.373Z,25.90
2022-08-27T18:42:49.772Z,25.80
2022-08-27T18:45:24.054Z,25.70
2022-08-27T18:47:52.247Z,25.60
2022-08-27T18:50:19.466Z,25.60
2022-08-27T18:52:48.569Z,25.60
2022-08-27T18:55:18.926Z,25.50
2022-08-27T18:57:46.182Z,25.50
2022-08-27T19:00:15.788Z,25.40
2022-08-27T19:02:43.284Z,25.40
2022-08-27T19:05:11.208Z,25.40
2022-08-27T19:07:38.582Z,25.40
2022-08-27T19:10:07.051Z,25.30
2022-08-27T19:12:34.279Z,25.30
2022-08-27T19:15:04.577Z,25.20
2022-08-27T19:17:34.853Z,25.20
2022-08-27T19:20:02.837Z,25.20
2022-08-27T19:22:32.740Z,25.20
2022-08-27T19:25:00.498Z,25.10
2022-08-27T19:27:29.707Z,25.10
2022-08-27T19:29:56.739Z,25.10
2022-08-27T19:32:23.772Z,25.10
2022-08-27T19:34:50.827Z,25.10
2022-08-27T19:37:27.980Z,25.10
2022-08-27T19:39:55.373Z,25.10
2022-08-27T19:42:22.771Z,25.00
2022-08-27T19:44:49.860Z,25.00
2022-08-27T19:47:21.370Z,25.00
2022-08-27T19:49:49.857Z,25.00
2022-08-27T19:52:16.857Z,24.90
2022-08-27T19:55:09.818Z,24.90
2022-08-27T19:57:30.672Z,24.80
2022-08-27T19:59:57.782Z,24.70
2022-08-27T20:02:24.983Z,24.70
2022-08-27T20:05:16.297Z,24.70
2022-08-27T20:07:38.573Z,24.60
2022-08-27T20:10:08.516Z,24.60
2022-08-27T20:12:36.428Z,24.60
2022-08-27T20:15:05.460Z,24.50
2022-08-27T20:17:32.536Z,24.40
2022-08-27T20:19:59.842Z,24.40
2022-08-27T20:22:26.971Z,24.40
2022-08-27T20:24:53.838Z,24.30
2022-08-27T20:27:20.875Z,24.30
2022-08-27T20:29:47.743Z,24.20
2022-08-27T20:32:14.860Z,24.20
2022-08-27T20:34:42.091Z,24.10
2022-08-27T20:37:09.127Z,24.10
2022-08-27T20:39:36.465Z,24.00
2022-08-27T20:42:03.513Z,24.00
2022-08-27T20:44:31.670Z,24.00
2022-08-27T20:47:01.037Z,24.00
2022-08-27T20:49:28.761Z,23.90
2022-08-27T20:52:02.620Z,23.80
2022-08-27T20:54:31.814Z,23.80
2022-08-27T20:56:59.351Z,23.80
2022-08-27T20:59:45.518Z,23.70
2022-08-27T21:02:14.107Z,23.70
2022-08-27T21:04:46.187Z,23.60
2022-08-27T21:07:18.128Z,23.60
2022-08-27T21:09:56.830Z,23.50
2022-08-27T21:12:27.006Z,23.50
2022-08-27T21:14:55.885Z,23.50
2022-08-27T21:17:24.628Z,23.40
2022-08-27T21:19:51.619Z,23.40
2022-08-27T21:22:19.042Z,23.40
2022-08-27T21:24:47.457Z,23.30
2022-08-27T21:27:15.385Z,23.30
2022-08-27T21:29:44.512Z,23.20
2022-08-27T21:32:12.031Z,23.20
2022-08-27T21:34:39.143Z,23.20
2022-08-27T21:37:05.931Z,23.10
2022-08-27T21:39:34.269Z,23.10
2022-08-27T21:42:02.126Z,23.10
2022-08-27T21:44:30.398Z,23.10
2022-08-27T21:46:58.281Z,23.10
2022-08-27T21:49:25.105Z,23.00
2022-08-27T21:51:52.136Z,23.00
2022-08-27T21:54:19.609Z,23.00
2022-08-27T21:56:50.591Z,23.00
2022-08-27T21:59:17.591Z,23.00
2022-08-27T22:01:44.709Z,23.00
2022-08-27T22:04:12.126Z,23.00
2022-08-27T22:06:39.146Z,23.00
2022-08-27T22:09:06.379Z,23.00
2022-08-27T22:11:33.423Z,23.00
2022-08-27T22:14:00.531Z,23.00
2022-08-27T22:16:29.116Z,23.00
2022-08-27T22:18:59.227Z,23.00
2022-08-27T22:21:26.844Z,22.90
2022-08-27T22:23:53.677Z,22.90
2022-08-27T22:26:21.296Z,22.90
2022-08-27T22:28:48.701Z,22.90
2022-08-27T22:31:15.917Z,22.90
2022-08-27T22:33:42.928Z,22.90
2022-08-27T22:36:10.234Z,22.90
2022-08-27T22:38:37.121Z,22.90
2022-08-27T22:41:05.750Z,22.90
2022-08-27T22:43:34.118Z,22.90
2022-08-27T22:46:01.106Z,22.80
2022-08-27T22:48:28.268Z,22.80
2022-08-27T22:50:55.305Z,22.80
2022-08-27T22:53:22.486Z,22.80
2022-08-27T22:55:50.347Z,22.80
2022-08-27T22:58:18.022Z,22.80
2022-08-27T23:00:50.134Z,22.70
2022-08-27T23:03:20.253Z,22.70
2022-08-27T23:05:47.545Z,22.70
2022-08-27T23:08:15.509Z,22.70
2022-08-27T23:10:43.851Z,22.70
2022-08-27T23:13:12.325Z,22.70
2022-08-27T23:15:40.235Z,22.60
2022-08-27T23:18:07.686Z,22.60
2022-08-27T23:20:34.805Z,22.60
2022-08-27T23:23:02.638Z,22.60
2022-08-27T23:25:48.724Z,22.50
2022-08-27T23:28:16.337Z,22.50
2022-08-27T23:30:44.935Z,22.50
2022-08-27T23:33:13.152Z,22.40
2022-08-27T23:35:44.455Z,22.40
2022-08-27T23:38:11.845Z,22.30
2022-08-27T23:40:38.991Z,22.30
2022-08-27T23:43:06.025Z,22.30
2022-08-27T23:45:35.948Z,22.20
2022-08-27T23:48:06.819Z,22.20
2022-08-27T23:50:35.079Z,22.10
2022-08-27T23:53:03.063Z,22.10
2022-08-27T23:55:29.971Z,22.00
2022-08-27T23:58:00.822Z,22.00
